createdAt,value
2019-05-19T00:00:09.327Z,13.50
2019-05-19T00:02:40.703Z,13.50
2019-05-19T00:05:07.887Z,13.50
2019-05-19T00:07:36.271Z,13.40
2019-05-19T00:10:06.475Z,13.40
2019-05-19T00:12:34.919Z,13.40
2019-05-19T00:15:04.535Z,13.50
2019-05-19T00:17:32.928Z,13.50
2019-05-19T00:20:01.692Z,13.40
2019-05-19T00:22:30.067Z,13.30
2019-05-19T00:24:58.447Z,13.40
2019-05-19T00:27:26.827Z,13.40
2019-05-19T00:29:55.211Z,13.30
2019-05-19T00:32:23.607Z,13.40
2019-05-19T00:34:51.995Z,13.50
2019-05-19T00:37:20.449Z,13.60
2019-05-19T00:39:48.827Z,13.60
2019-05-19T00:42:17.215Z,13.50
2019-05-19T00:44:45.596Z,13.50
2019-05-19T00:47:14.064Z,13.50
2019-05-19T00:49:42.447Z,13.50
2019-05-19T00:52:10.835Z,13.50
2019-05-19T00:54:39.211Z,13.60
2019-05-19T00:57:07.941Z,13.70
2019-05-19T00:59:37.155Z,13.70
2019-05-19T01:02:05.620Z,13.70
2019-05-19T01:04:33.992Z,13.70
2019-05-19T01:07:02.371Z,13.60
2019-05-19T01:09:30.765Z,13.50
2019-05-19T01:11:59.142Z,13.50
2019-05-19T01:14:27.533Z,13.50
2019-05-19T01:16:55.907Z,13.50
2019-05-19T01:19:24.291Z,13.50
2019-05-19T01:21:53.121Z,13.50
2019-05-19T01:24:21.511Z,13.50
2019-05-19T01:26:49.895Z,13.60
2019-05-19T01:29:18.268Z,13.60
2019-05-19T01:31:46.661Z,13.70
2019-05-19T01:34:15.040Z,13.70
2019-05-19T01:36:43.439Z,13.70
2019-05-19T01:39:11.819Z,13.70
2019-05-19T01:41:40.213Z,13.60
2019-05-19T01:44:08.597Z,13.60
2019-05-19T01:46:36.992Z,13.60
2019-05-19T01:49:05.375Z,13.60
2019-05-19T01:51:33.753Z,13.60
2019-05-19T01:54:02.145Z,13.60
2019-05-19T01:56:30.525Z,13.60
2019-05-19T01:58:58.922Z,13.60
2019-05-19T02:01:27.294Z,13.50
2019-05-19T02:03:55.687Z,13.60
2019-05-19T02:06:24.067Z,13.60
2019-05-19T02:08:52.459Z,13.70
2019-05-19T02:11:20.839Z,13.60
2019-05-19T02:13:49.220Z,13.60
2019-05-19T02:16:17.611Z,13.60
2019-05-19T02:18:45.987Z,13.60
2019-05-19T02:21:14.377Z,13.60
2019-05-19T02:23:42.763Z,13.60
2019-05-19T02:26:11.154Z,13.60
2019-05-19T02:28:39.543Z,13.60
2019-05-19T02:31:08.018Z,13.50
2019-05-19T02:33:36.469Z,13.50
2019-05-19T02:36:05.028Z,13.40
2019-05-19T02:38:33.423Z,13.40
2019-05-19T02:41:04.513Z,13.30
2019-05-19T02:43:34.242Z,13.20
2019-05-19T02:46:04.128Z,13.20
2019-05-19T02:48:33.223Z,13.10
2019-05-19T02:51:03.443Z,13.10
2019-05-19T02:53:33.040Z,13.00
2019-05-19T02:56:02.893Z,12.90
2019-05-19T02:58:32.367Z,12.90
2019-05-19T03:01:00.757Z,12.80
2019-05-19T03:03:29.145Z,12.80
2019-05-19T03:05:57.548Z,12.80
2019-05-19T03:08:25.986Z,12.80
2019-05-19T03:10:54.376Z,12.80
2019-05-19T03:13:22.752Z,12.70
2019-05-19T03:15:51.137Z,12.70
2019-05-19T03:18:19.528Z,12.70
2019-05-19T03:20:47.906Z,12.70
2019-05-19T03:23:16.301Z,12.70
2019-05-19T03:25:44.698Z,12.70
2019-05-19T03:28:13.082Z,12.60
2019-05-19T03:30:55.217Z,12.70
2019-05-19T03:33:25.257Z,12.70
2019-05-19T03:35:53.680Z,12.60
2019-05-19T03:38:22.264Z,12.60
2019-05-19T03:40:51.006Z,12.70
2019-05-19T03:43:19.388Z,12.70
2019-05-19T03:45:47.785Z,12.70
2019-05-19T03:48:16.159Z,12.70
2019-05-19T03:50:44.552Z,12.60
2019-05-19T03:53:12.940Z,12.60
2019-05-19T03:55:41.334Z,12.50
2019-05-19T03:58:09.716Z,12.40
2019-05-19T04:00:38.095Z,12.40
2019-05-19T04:03:06.485Z,12.50
2019-05-19T04:05:34.879Z,12.50
2019-05-19T04:08:03.255Z,12.50
2019-05-19T04:10:31.655Z,12.50
2019-05-19T04:13:00.031Z,12.50
2019-05-19T04:15:28.424Z,12.40
2019-05-19T04:17:56.808Z,12.50
2019-05-19T04:20:25.183Z,12.50
2019-05-19T04:22:53.583Z,12.60
2019-05-19T04:25:41.304Z,12.60
2019-05-19T04:28:09.700Z,12.60
2019-05-19T04:30:38.084Z,12.70
2019-05-19T04:33:06.466Z,12.70
2019-05-19T04:35:34.860Z,12.70
2019-05-19T04:38:03.240Z,12.80
2019-05-19T04:40:31.712Z,12.90
2019-05-19T04:43:00.102Z,13.00
2019-05-19T04:45:28.485Z,13.00
2019-05-19T04:47:56.865Z,13.00
2019-05-19T04:50:25.259Z,13.10
2019-05-19T04:52:53.632Z,13.20
2019-05-19T04:55:22.091Z,13.30
2019-05-19T04:57:50.471Z,13.40
2019-05-19T05:00:19.183Z,13.50
2019-05-19T05:02:47.575Z,13.70
2019-05-19T05:05:16.292Z,13.70
2019-05-19T05:07:44.682Z,13.90
2019-05-19T05:10:13.803Z,14.00
2019-05-19T05:12:42.175Z,14.00
2019-05-19T05:15:10.625Z,14.10
2019-05-19T05:17:39.011Z,14.20
2019-05-19T05:20:08.423Z,14.20
2019-05-19T05:22:36.885Z,14.20
2019-05-19T05:25:08.721Z,14.30
2019-05-19T05:27:37.090Z,14.40
2019-05-19T05:30:07.119Z,14.50
2019-05-19T05:32:35.495Z,14.60
2019-05-19T05:35:05.536Z,14.60
2019-05-19T05:37:33.907Z,14.70
2019-05-19T05:40:02.327Z,14.70
2019-05-19T05:42:31.927Z,14.70
2019-05-19T05:45:00.607Z,14.80
2019-05-19T05:47:28.995Z,14.90
2019-05-19T05:49:57.376Z,14.90
2019-05-19T05:52:37.982Z,15.00
2019-05-19T05:54:55.863Z,15.10
2019-05-19T05:57:24.239Z,15.30
2019-05-19T05:59:52.628Z,15.40
2019-05-19T06:02:21.006Z,15.50
2019-05-19T06:04:49.395Z,15.60
2019-05-19T06:07:17.777Z,15.80
2019-05-19T06:09:46.174Z,15.80
2019-05-19T06:12:14.575Z,16.00
2019-05-19T06:14:43.207Z,16.20
2019-05-19T06:17:11.595Z,16.30
2019-05-19T06:19:39.972Z,16.40
2019-05-19T06:22:08.364Z,16.60
2019-05-19T06:24:36.735Z,16.80
2019-05-19T06:27:05.130Z,17.10
2019-05-19T06:29:33.504Z,17.30
2019-05-19T06:32:03.536Z,17.50
2019-05-19T06:34:31.915Z,17.80
2019-05-19T06:37:00.305Z,17.90
2019-05-19T06:39:28.691Z,18.00
2019-05-19T06:41:57.067Z,18.40
2019-05-19T06:44:25.435Z,18.70
2019-05-19T06:46:53.823Z,18.90
2019-05-19T06:49:22.200Z,19.00
2019-05-19T06:51:50.592Z,19.10
2019-05-19T06:54:18.972Z,19.10
2019-05-19T06:56:47.896Z,19.00
2019-05-19T06:59:16.286Z,18.80
2019-05-19T07:01:44.656Z,18.90
2019-05-19T07:04:13.064Z,19.00
2019-05-19T07:06:41.504Z,19.10
2019-05-19T07:09:09.919Z,19.10
2019-05-19T07:11:38.303Z,19.20
2019-05-19T07:14:06.697Z,19.30
2019-05-19T07:16:35.067Z,19.60
2019-05-19T07:19:03.452Z,19.80
2019-05-19T07:21:31.850Z,20.10
2019-05-19T07:24:00.224Z,20.30
2019-05-19T07:26:28.614Z,20.60
2019-05-19T07:28:58.929Z,20.70
2019-05-19T07:31:27.108Z,21.20
2019-05-19T07:33:55.480Z,21.80
2019-05-19T07:36:23.861Z,22.20
2019-05-19T07:38:52.264Z,22.80
2019-05-19T07:41:20.649Z,23.10
2019-05-19T07:43:49.100Z,23.40
2019-05-19T07:46:17.493Z,24.00
2019-05-19T07:48:45.961Z,24.30
2019-05-19T07:51:14.335Z,24.60
2019-05-19T07:53:43.453Z,24.50
2019-05-19T07:56:11.883Z,24.20
2019-05-19T07:58:40.285Z,24.10
2019-05-19T08:01:08.681Z,23.90
2019-05-19T08:03:37.048Z,23.50
2019-05-19T08:06:05.518Z,23.20
2019-05-19T08:08:33.920Z,23.00
2019-05-19T08:11:02.303Z,23.10
2019-05-19T08:13:30.683Z,23.40
2019-05-19T08:15:59.148Z,23.50
2019-05-19T08:18:27.528Z,23.70
2019-05-19T08:20:55.922Z,24.00
2019-05-19T08:23:24.301Z,24.30
2019-05-19T08:25:52.685Z,24.40
2019-05-19T08:28:21.063Z,24.40
2019-05-19T08:30:49.447Z,24.40
2019-05-19T08:33:17.865Z,24.40
2019-05-19T08:35:46.241Z,25.00
2019-05-19T08:38:14.615Z,25.70
2019-05-19T08:40:43.018Z,26.30
2019-05-19T08:43:11.545Z,26.70
2019-05-19T08:45:39.994Z,27.30
2019-05-19T08:48:08.370Z,28.40
2019-05-19T08:50:36.747Z,29.70
2019-05-19T08:53:05.135Z,30.60
2019-05-19T08:55:33.520Z,31.50
2019-05-19T08:58:02.145Z,32.10
2019-05-19T09:00:34.143Z,32.10
2019-05-19T09:03:00.735Z,32.00
2019-05-19T09:05:29.134Z,32.20
2019-05-19T09:07:57.508Z,32.10
2019-05-19T09:10:25.908Z,32.40
2019-05-19T09:12:54.287Z,32.40
2019-05-19T09:15:22.667Z,32.70
2019-05-19T09:17:54.087Z,32.80
2019-05-19T09:20:21.712Z,33.30
2019-05-19T09:22:50.095Z,33.20
2019-05-19T09:25:18.491Z,33.30
2019-05-19T09:27:46.867Z,33.30
2019-05-19T09:30:15.604Z,33.40
2019-05-19T09:32:43.982Z,33.20
2019-05-19T09:35:13.967Z,33.70
2019-05-19T09:37:42.363Z,33.60
2019-05-19T09:40:11.071Z,33.80
2019-05-19T09:42:39.444Z,34.10
2019-05-19T09:45:08.785Z,34.60
2019-05-19T09:47:37.706Z,34.80
2019-05-19T09:50:07.075Z,34.80
2019-05-19T09:52:35.448Z,35.10
2019-05-19T09:55:05.139Z,35.20
2019-05-19T09:57:33.708Z,34.90
2019-05-19T10:00:02.227Z,34.90
2019-05-19T10:02:30.616Z,34.60
2019-05-19T10:04:58.996Z,34.50
2019-05-19T10:07:27.387Z,34.50
2019-05-19T10:10:01.108Z,34.60
2019-05-19T10:12:30.039Z,35.00
2019-05-19T10:14:58.491Z,35.20
2019-05-19T10:17:26.892Z,35.30
2019-05-19T10:19:55.260Z,35.90
2019-05-19T10:22:23.632Z,36.70
2019-05-19T10:25:10.522Z,37.00
2019-05-19T10:27:22.407Z,37.20
2019-05-19T10:29:50.816Z,37.70
2019-05-19T10:32:19.200Z,37.90
2019-05-19T10:34:47.580Z,37.60
2019-05-19T10:37:15.985Z,38.00
2019-05-19T10:39:44.348Z,38.30
2019-05-19T10:42:12.744Z,38.30
2019-05-19T10:44:41.128Z,38.20
2019-05-19T10:47:09.522Z,37.50
2019-05-19T10:49:37.963Z,37.00
2019-05-19T10:52:06.412Z,36.40
2019-05-19T10:54:35.567Z,35.50
2019-05-19T10:57:04.016Z,35.30
2019-05-19T10:59:32.403Z,35.00
2019-05-19T11:02:00.776Z,34.80
2019-05-19T11:04:29.179Z,35.20
2019-05-19T11:06:57.554Z,35.10
2019-05-19T11:09:25.934Z,35.00
2019-05-19T11:11:54.311Z,35.30
2019-05-19T11:14:22.703Z,35.60
2019-05-19T11:16:51.092Z,35.50
2019-05-19T11:19:19.464Z,35.30
2019-05-19T11:21:47.844Z,34.80
2019-05-19T11:24:16.231Z,34.30
2019-05-19T11:26:44.624Z,34.20
2019-05-19T11:29:13.367Z,34.20
2019-05-19T11:31:41.755Z,34.30
2019-05-19T11:34:10.138Z,34.60
2019-05-19T11:36:38.503Z,34.70
2019-05-19T11:39:08.032Z,34.80
2019-05-19T11:41:36.471Z,35.00
2019-05-19T11:44:04.955Z,35.00
2019-05-19T11:46:33.443Z,35.30
2019-05-19T11:49:01.874Z,35.40
2019-05-19T11:51:30.307Z,36.10
2019-05-19T11:53:58.687Z,36.70
2019-05-19T11:56:27.063Z,37.00
2019-05-19T11:58:55.447Z,36.70
2019-05-19T12:01:23.819Z,36.30
2019-05-19T12:03:55.255Z,35.40
2019-05-19T12:06:37.616Z,34.70
2019-05-19T12:08:52.408Z,34.40
2019-05-19T12:11:20.800Z,34.00
2019-05-19T12:13:49.184Z,33.90
2019-05-19T12:16:17.552Z,34.70
2019-05-19T12:18:45.928Z,35.50
2019-05-19T12:21:14.308Z,35.80
2019-05-19T12:23:42.694Z,36.20
2019-05-19T12:26:22.680Z,36.60
2019-05-19T12:28:41.176Z,36.30
2019-05-19T12:31:09.629Z,36.40
2019-05-19T12:33:51.163Z,36.50
2019-05-19T12:36:08.130Z,36.70
2019-05-19T12:38:36.503Z,36.30
2019-05-19T12:41:04.876Z,35.90
2019-05-19T12:43:33.252Z,35.80
2019-05-19T12:46:01.662Z,35.60
2019-05-19T12:48:30.108Z,35.70
2019-05-19T12:50:58.504Z,36.50
2019-05-19T12:53:26.881Z,37.20
2019-05-19T12:55:55.255Z,37.60
2019-05-19T12:58:23.657Z,37.40
2019-05-19T13:00:52.015Z,36.70
2019-05-19T13:03:20.412Z,36.10
2019-05-19T13:05:48.784Z,35.20
2019-05-19T13:08:17.168Z,34.60
2019-05-19T13:10:45.559Z,34.80
2019-05-19T13:13:13.941Z,35.70
2019-05-19T13:15:42.319Z,37.10
2019-05-19T13:18:10.702Z,37.80
2019-05-19T13:20:39.072Z,38.00
2019-05-19T13:23:07.459Z,38.50
2019-05-19T13:25:35.865Z,38.80
2019-05-19T13:28:04.356Z,38.90
2019-05-19T13:30:32.730Z,38.90
2019-05-19T13:33:01.111Z,38.90
2019-05-19T13:35:29.505Z,38.80
2019-05-19T13:37:57.957Z,38.40
2019-05-19T13:40:26.346Z,38.00
2019-05-19T13:42:54.711Z,37.90
2019-05-19T13:45:23.175Z,37.90
2019-05-19T13:47:51.559Z,37.00
2019-05-19T13:50:19.942Z,36.00
2019-05-19T13:52:51.121Z,35.00
2019-05-19T13:55:18.423Z,34.30
2019-05-19T13:57:46.792Z,33.50
2019-05-19T14:00:17.772Z,33.40
2019-05-19T14:02:46.179Z,34.10
2019-05-19T14:05:14.560Z,34.40
2019-05-19T14:07:42.940Z,34.50
2019-05-19T14:10:11.856Z,35.20
2019-05-19T14:12:40.236Z,35.80
2019-05-19T14:15:08.611Z,36.60
2019-05-19T14:17:36.987Z,35.10
2019-05-19T14:20:07.511Z,34.00
2019-05-19T14:22:35.884Z,33.80
2019-05-19T14:25:05.600Z,34.20
2019-05-19T14:27:33.977Z,34.40
2019-05-19T14:30:02.360Z,34.80
2019-05-19T14:32:30.807Z,35.30
2019-05-19T14:34:59.191Z,34.50
2019-05-19T14:37:27.583Z,33.30
2019-05-19T14:39:56.035Z,32.30
2019-05-19T14:42:42.564Z,31.30
2019-05-19T14:45:11.744Z,29.30
2019-05-19T14:47:40.120Z,27.70
2019-05-19T14:50:09.044Z,26.50
2019-05-19T14:52:37.432Z,26.10
2019-05-19T14:55:06.961Z,26.30
2019-05-19T14:57:44.369Z,26.30
2019-05-19T15:00:06.639Z,26.00
2019-05-19T15:02:35.012Z,25.50
2019-05-19T15:05:03.772Z,25.10
2019-05-19T15:07:32.154Z,24.60
2019-05-19T15:10:00.531Z,24.20
2019-05-19T15:12:28.993Z,23.90
2019-05-19T15:14:57.398Z,23.70
2019-05-19T15:17:25.776Z,23.30
2019-05-19T15:19:54.163Z,23.00
2019-05-19T15:22:22.543Z,22.60
2019-05-19T15:24:50.927Z,22.30
2019-05-19T15:27:19.332Z,21.70
2019-05-19T15:29:47.719Z,21.20
2019-05-19T15:32:16.175Z,20.80
2019-05-19T15:34:44.552Z,20.70
2019-05-19T15:37:12.936Z,20.70
2019-05-19T15:39:41.303Z,20.80
2019-05-19T15:42:09.684Z,20.60
2019-05-19T15:44:38.090Z,20.10
2019-05-19T15:47:06.440Z,19.50
2019-05-19T15:49:34.811Z,18.80
2019-05-19T15:52:05.375Z,18.00
2019-05-19T15:54:33.362Z,17.20
2019-05-19T15:57:01.740Z,16.70
2019-05-19T15:59:30.124Z,16.20
2019-05-19T16:01:58.566Z,15.90
2019-05-19T16:04:26.931Z,15.70
2019-05-19T16:06:55.316Z,15.40
2019-05-19T16:09:23.691Z,15.20
2019-05-19T16:11:52.080Z,15.10
2019-05-19T16:14:20.451Z,14.80
2019-05-19T16:16:48.843Z,14.60
2019-05-19T16:19:17.215Z,14.60
2019-05-19T16:21:45.603Z,14.50
2019-05-19T16:24:13.991Z,14.50
2019-05-19T16:26:42.367Z,14.50
2019-05-19T16:29:10.755Z,14.50
2019-05-19T16:31:39.135Z,14.40
2019-05-19T16:34:07.550Z,14.50
2019-05-19T16:36:35.988Z,14.40
2019-05-19T16:39:06.308Z,14.40
2019-05-19T16:41:34.710Z,14.30
2019-05-19T16:44:03.251Z,14.30
2019-05-19T16:46:31.635Z,14.30
2019-05-19T16:49:00.023Z,14.30
2019-05-19T16:51:28.404Z,14.40
2019-05-19T16:54:00.412Z,14.30
2019-05-19T16:56:28.793Z,14.40
2019-05-19T16:58:57.171Z,14.30
2019-05-19T17:01:25.555Z,14.30
2019-05-19T17:03:53.970Z,14.30
2019-05-19T17:06:22.328Z,14.30
2019-05-19T17:08:50.721Z,14.40
2019-05-19T17:11:19.104Z,14.50
2019-05-19T17:13:47.498Z,14.50
2019-05-19T17:16:15.875Z,14.60
2019-05-19T17:18:44.256Z,14.70
2019-05-19T17:21:12.652Z,14.80
2019-05-19T17:23:41.040Z,14.80
2019-05-19T17:26:09.419Z,14.80
2019-05-19T17:28:37.860Z,14.80
2019-05-19T17:31:07.693Z,14.70
2019-05-19T17:33:36.339Z,14.70
2019-05-19T17:36:04.719Z,14.70
2019-05-19T17:38:33.101Z,14.70
2019-05-19T17:41:01.476Z,14.60
2019-05-19T17:43:29.886Z,14.50
2019-05-19T17:45:58.311Z,14.50
2019-05-19T17:48:27.087Z,14.50
2019-05-19T17:50:55.639Z,14.30
2019-05-19T17:53:24.099Z,14.30
2019-05-19T17:55:54.232Z,14.30
2019-05-19T17:58:23.147Z,14.30
2019-05-19T18:00:51.528Z,14.20
2019-05-19T18:03:19.980Z,14.20
2019-05-19T18:05:48.355Z,14.10
2019-05-19T18:08:16.744Z,14.10
2019-05-19T18:10:47.433Z,14.10
2019-05-19T18:13:15.803Z,14.10
2019-05-19T18:15:44.176Z,14.10
2019-05-19T18:18:12.554Z,14.20
2019-05-19T18:20:40.940Z,14.20
2019-05-19T18:23:09.324Z,14.20
2019-05-19T18:25:37.754Z,14.20
2019-05-19T18:28:06.208Z,14.30
2019-05-19T18:30:34.696Z,14.30
2019-05-19T18:33:03.142Z,14.30
2019-05-19T18:35:31.555Z,14.30
2019-05-19T18:37:59.948Z,14.30
2019-05-19T18:40:28.311Z,14.20
2019-05-19T18:42:56.683Z,14.20
2019-05-19T18:45:25.072Z,14.20
2019-05-19T18:47:53.467Z,14.10
2019-05-19T18:50:21.848Z,13.90
2019-05-19T18:52:50.223Z,13.80
2019-05-19T18:55:18.619Z,13.70
2019-05-19T18:57:47.002Z,13.70
2019-05-19T19:00:18.452Z,13.60
2019-05-19T19:02:48.013Z,13.60
2019-05-19T19:05:16.601Z,13.60
2019-05-19T19:07:52.792Z,13.60
2019-05-19T19:10:21.300Z,13.70
2019-05-19T19:12:49.661Z,13.60
2019-05-19T19:15:18.050Z,13.60
2019-05-19T19:17:46.445Z,13.60
2019-05-19T19:20:15.261Z,13.50
2019-05-19T19:22:43.645Z,13.50
2019-05-19T19:25:12.212Z,13.50
2019-05-19T19:27:40.591Z,13.50
2019-05-19T19:30:09.552Z,13.30
2019-05-19T19:32:37.936Z,13.30
2019-05-19T19:35:07.201Z,13.30
2019-05-19T19:37:35.583Z,13.20
2019-05-19T19:40:06.913Z,13.10
2019-05-19T19:42:35.292Z,13.10
2019-05-19T19:45:04.620Z,13.10
2019-05-19T19:47:33.008Z,13.20
2019-05-19T19:50:01.431Z,13.30
2019-05-19T19:52:29.840Z,13.30
2019-05-19T19:54:58.232Z,13.30
2019-05-19T19:57:26.603Z,13.40
2019-05-19T19:59:54.992Z,13.50
2019-05-19T20:02:23.371Z,13.40
2019-05-19T20:05:11.164Z,13.40
2019-05-19T20:07:39.560Z,13.40
2019-05-19T20:10:08.108Z,13.40
2019-05-19T20:12:36.500Z,13.40
2019-05-19T20:15:05.623Z,13.40
2019-05-19T20:17:34.003Z,13.40
2019-05-19T20:20:02.404Z,13.30
2019-05-19T20:22:30.772Z,13.40
2019-05-19T20:24:59.164Z,13.50
2019-05-19T20:27:27.558Z,13.50
2019-05-19T20:29:55.943Z,13.40
2019-05-19T20:32:24.310Z,13.30
2019-05-19T20:34:52.699Z,13.20
2019-05-19T20:37:21.079Z,13.10
2019-05-19T20:39:49.456Z,13.10
2019-05-19T20:42:17.849Z,13.20
2019-05-19T20:44:46.224Z,13.20
2019-05-19T20:47:14.620Z,13.30
2019-05-19T20:49:42.997Z,13.30
2019-05-19T20:52:11.367Z,13.40
2019-05-19T20:54:40.036Z,13.50
2019-05-19T20:57:08.415Z,13.50
2019-05-19T20:59:36.787Z,13.50
2019-05-19T21:02:05.243Z,13.60
2019-05-19T21:04:33.618Z,13.70
2019-05-19T21:07:02.004Z,13.70
2019-05-19T21:09:30.379Z,13.80
2019-05-19T21:11:58.767Z,13.80
2019-05-19T21:14:27.144Z,13.80
2019-05-19T21:16:55.532Z,13.90
2019-05-19T21:19:23.925Z,13.90
2019-05-19T21:21:52.304Z,13.90
2019-05-19T21:24:20.680Z,13.90
2019-05-19T21:26:49.079Z,13.90
2019-05-19T21:29:36.796Z,13.80
2019-05-19T21:32:05.188Z,13.90
2019-05-19T21:34:33.556Z,13.90
2019-05-19T21:37:01.954Z,14.00
2019-05-19T21:39:30.323Z,14.00
2019-05-19T21:41:58.973Z,13.90
2019-05-19T21:44:30.093Z,13.80
2019-05-19T21:46:58.475Z,13.70
2019-05-19T21:49:26.859Z,13.60
2019-05-19T21:51:55.238Z,13.40
2019-05-19T21:54:23.619Z,13.40
2019-05-19T21:56:51.999Z,13.30
2019-05-19T21:59:20.392Z,13.30
2019-05-19T22:01:48.773Z,13.20
2019-05-19T22:04:17.151Z,13.20
2019-05-19T22:07:03.183Z,13.10
2019-05-19T22:09:31.564Z,13.10
2019-05-19T22:11:59.955Z,13.00
2019-05-19T22:14:28.339Z,13.00
2019-05-19T22:16:56.731Z,13.10
2019-05-19T22:19:25.105Z,13.20
2019-05-19T22:21:53.499Z,13.30
2019-05-19T22:24:21.877Z,13.50
2019-05-19T22:26:50.252Z,13.50
2019-05-19T22:29:18.710Z,13.50
2019-05-19T22:31:47.091Z,13.50
2019-05-19T22:34:15.480Z,13.40
2019-05-19T22:36:43.856Z,13.40
2019-05-19T22:39:12.236Z,13.30
2019-05-19T22:41:40.616Z,13.30
2019-05-19T22:44:09.003Z,13.20
2019-05-19T22:46:37.380Z,13.10
2019-05-19T22:49:05.767Z,13.10
2019-05-19T22:51:34.135Z,13.10
2019-05-19T22:54:02.521Z,13.00
2019-05-19T22:56:30.904Z,12.90
2019-05-19T22:58:59.279Z,12.90
2019-05-19T23:01:27.656Z,12.80
2019-05-19T23:03:56.043Z,12.70
2019-05-19T23:06:24.436Z,12.70
2019-05-19T23:08:52.899Z,12.70
2019-05-19T23:11:21.295Z,12.60
2019-05-19T23:13:49.675Z,12.50
2019-05-19T23:16:18.073Z,12.50
2019-05-19T23:18:46.535Z,12.50
2019-05-19T23:21:14.916Z,12.50
2019-05-19T23:24:01.604Z,12.50
2019-05-19T23:26:29.983Z,12.50
2019-05-19T23:28:58.363Z,12.50
2019-05-19T23:31:26.759Z,12.50
2019-05-19T23:33:55.140Z,12.50
2019-05-19T23:36:23.522Z,12.60
2019-05-19T23:38:51.907Z,12.60
2019-05-19T23:41:20.288Z,12.70
2019-05-19T23:43:48.680Z,12.80
2019-05-19T23:46:17.067Z,12.90
2019-05-19T23:48:45.451Z,13.00
2019-05-19T23:51:13.848Z,13.00
2019-05-19T23:53:42.227Z,13.10
2019-05-19T23:56:10.630Z,13.10
2019-05-19T23:58:39.007Z,13.00
